createdAt,value
2019-03-21T00:02:38.675Z,0.38
2019-03-21T00:05:44.392Z,0.37
2019-03-21T00:08:50.123Z,0.26
2019-03-21T00:12:03.600Z,0.50
2019-03-21T00:15:20.905Z,0.29
2019-03-21T00:18:26.632Z,0.13
2019-03-21T00:21:32.355Z,-0.04
2019-03-21T00:24:38.067Z,-0.09
2019-03-21T00:27:43.790Z,-0.13
2019-03-21T00:30:49.479Z,0.05
2019-03-21T00:33:55.216Z,0.10
2019-03-21T00:37:00.943Z,-0.04
2019-03-21T00:40:08.794Z,-0.06
2019-03-21T00:43:14.496Z,-0.06
2019-03-21T00:46:20.167Z,-0.34
2019-03-21T00:49:27.099Z,-0.31
2019-03-21T00:52:32.851Z,-0.39
2019-03-21T00:55:39.143Z,-0.46
2019-03-21T00:58:44.776Z,-0.50
2019-03-21T01:01:50.506Z,-0.51
2019-03-21T01:04:56.229Z,-0.37
2019-03-21T01:08:02.891Z,-0.42
2019-03-21T01:11:08.567Z,-0.30
2019-03-21T01:14:14.268Z,-0.16
2019-03-21T01:17:19.963Z,-0.03
2019-03-21T01:20:25.735Z,-0.16
2019-03-21T01:23:31.460Z,-0.23
2019-03-21T01:26:37.239Z,-0.29
2019-03-21T01:29:42.987Z,-0.41
2019-03-21T01:32:48.639Z,-0.34
2019-03-21T01:35:54.386Z,-0.40
2019-03-21T01:39:00.085Z,-0.50
2019-03-21T01:42:06.261Z,-0.47
2019-03-21T01:45:13.857Z,-0.58
2019-03-21T01:48:19.500Z,-0.31
2019-03-21T01:51:25.194Z,-0.55
2019-03-21T01:54:30.892Z,-0.63
2019-03-21T01:57:36.590Z,-0.82
2019-03-21T02:00:42.295Z,-0.64
2019-03-21T02:03:48.126Z,-0.59
2019-03-21T02:06:53.786Z,-0.66
2019-03-21T02:09:59.700Z,-0.68
2019-03-21T02:13:05.421Z,-0.87
2019-03-21T02:16:11.089Z,-0.71
2019-03-21T02:19:16.831Z,-0.72
2019-03-21T02:22:22.476Z,-0.85
2019-03-21T02:25:29.294Z,-0.84
2019-03-21T02:28:35.177Z,-0.99
2019-03-21T02:31:41.066Z,-0.92
2019-03-21T02:34:46.795Z,-0.97
2019-03-21T02:37:52.459Z,-0.83
2019-03-21T02:40:59.290Z,-0.97
2019-03-21T02:44:05.022Z,-1.06
2019-03-21T02:47:10.650Z,-1.11
2019-03-21T02:50:19.762Z,-1.15
2019-03-21T02:53:25.444Z,-1.20
2019-03-21T02:56:31.165Z,-1.23
2019-03-21T02:59:36.903Z,-1.31
2019-03-21T03:02:42.618Z,-1.34
2019-03-21T03:05:48.341Z,-1.38
2019-03-21T03:08:54.059Z,-1.33
2019-03-21T03:11:59.856Z,-1.31
2019-03-21T03:15:06.509Z,-1.26
2019-03-21T03:18:12.265Z,-1.31
2019-03-21T03:21:17.945Z,-1.19
2019-03-21T03:24:25.565Z,-1.17
2019-03-21T03:27:31.284Z,-1.31
2019-03-21T03:30:36.990Z,-1.27
2019-03-21T03:33:42.661Z,-1.12
2019-03-21T03:36:48.386Z,-1.07
2019-03-21T03:39:54.078Z,-1.09
2019-03-21T03:42:59.730Z,-1.09
2019-03-21T03:46:05.494Z,-1.04
2019-03-21T03:49:11.169Z,-1.12
2019-03-21T03:52:16.890Z,-1.24
2019-03-21T03:55:22.561Z,-1.33
2019-03-21T03:58:28.241Z,-1.29
2019-03-21T04:01:33.914Z,-1.20
2019-03-21T04:04:39.667Z,-1.27
2019-03-21T04:07:45.397Z,-1.37
2019-03-21T04:10:52.039Z,-1.39
2019-03-21T04:13:57.723Z,-1.25
2019-03-21T04:17:03.416Z,-1.59
2019-03-21T04:20:11.043Z,-1.59
2019-03-21T04:23:17.633Z,-1.48
2019-03-21T04:26:26.691Z,-1.32
2019-03-21T04:29:32.381Z,-1.63
2019-03-21T04:32:38.023Z,-1.84
2019-03-21T04:35:43.733Z,-1.99
2019-03-21T04:38:49.360Z,-2.08
2019-03-21T04:41:55.077Z,-2.00
2019-03-21T04:45:00.794Z,-1.91
2019-03-21T04:48:06.460Z,-1.99
2019-03-21T04:51:12.153Z,-2.06
2019-03-21T04:54:17.769Z,-2.10
2019-03-21T04:57:23.487Z,-2.05
2019-03-21T05:00:31.562Z,-2.06
2019-03-21T05:03:38.228Z,-1.91
2019-03-21T05:06:43.892Z,-1.82
2019-03-21T05:09:49.649Z,-1.97
2019-03-21T05:12:55.343Z,-1.84
2019-03-21T05:16:00.992Z,-1.77
2019-03-21T05:19:06.692Z,-2.03
2019-03-21T05:22:12.371Z,-2.04
2019-03-21T05:25:18.171Z,-1.91
2019-03-21T05:28:24.828Z,-2.00
2019-03-21T05:31:32.551Z,-2.12
2019-03-21T05:34:38.244Z,-2.04
2019-03-21T05:37:43.994Z,-1.99
2019-03-21T05:40:49.642Z,-1.97
2019-03-21T05:44:05.801Z,-1.87
2019-03-21T05:47:11.446Z,-1.79
2019-03-21T05:50:17.493Z,-1.30
2019-03-21T05:53:23.270Z,-1.21
2019-03-21T05:56:29.223Z,-0.95
2019-03-21T05:59:34.897Z,-0.80
2019-03-21T06:02:40.518Z,-0.73
2019-03-21T06:05:49.455Z,-0.49
2019-03-21T06:12:17.733Z,-0.15
2019-03-21T06:15:28.782Z,-0.07
2019-03-21T06:19:06.499Z,0.00
2019-03-21T06:22:37.281Z,0.10
2019-03-21T06:26:13.235Z,0.19
2019-03-21T06:29:18.902Z,0.50
2019-03-21T06:32:24.880Z,0.52
2019-03-21T06:35:31.628Z,1.05
2019-03-21T06:38:37.328Z,1.07
2019-03-21T06:41:43.039Z,1.29
2019-03-21T06:44:48.782Z,1.49
2019-03-21T06:47:54.485Z,1.76
2019-03-21T06:51:00.159Z,1.85
2019-03-21T06:54:05.989Z,1.88
2019-03-21T06:57:11.736Z,1.74
2019-03-21T07:00:17.523Z,1.93
2019-03-21T07:03:23.219Z,1.95
2019-03-21T07:06:28.925Z,2.23
2019-03-21T07:09:34.594Z,2.40
2019-03-21T07:12:40.307Z,2.52
2019-03-21T07:15:46.032Z,2.55
2019-03-21T07:18:51.743Z,2.86
2019-03-21T07:21:57.611Z,3.07
2019-03-21T07:25:03.395Z,3.06
2019-03-21T07:28:09.094Z,3.42
2019-03-21T07:31:14.803Z,3.24
2019-03-21T07:34:20.558Z,3.38
2019-03-21T07:37:26.212Z,3.13
2019-03-21T07:40:32.062Z,3.35
2019-03-21T07:43:37.823Z,3.42
2019-03-21T07:46:43.495Z,3.40
2019-03-21T07:49:49.192Z,3.51
2019-03-21T07:52:54.945Z,3.86
2019-03-21T07:56:00.626Z,4.47
2019-03-21T07:59:07.274Z,4.37
2019-03-21T08:02:13.032Z,4.42
2019-03-21T08:05:18.669Z,4.90
2019-03-21T08:08:24.407Z,5.26
2019-03-21T08:11:30.166Z,5.53
2019-03-21T08:14:35.834Z,5.55
2019-03-21T08:17:41.670Z,5.33
2019-03-21T08:20:56.242Z,5.13
2019-03-21T08:23:54.710Z,5.77
2019-03-21T08:27:01.423Z,6.05
2019-03-21T08:30:10.854Z,6.21
2019-03-21T08:33:16.529Z,6.22
2019-03-21T08:36:22.189Z,6.52
2019-03-21T08:39:27.913Z,6.31
2019-03-21T08:42:33.602Z,6.76
2019-03-21T08:45:39.381Z,6.80
2019-03-21T08:48:45.139Z,6.91
2019-03-21T08:51:50.819Z,7.27
2019-03-21T08:54:56.616Z,7.54
2019-03-21T08:58:02.228Z,8.20
2019-03-21T09:01:07.967Z,8.59
2019-03-21T09:04:13.686Z,8.43
2019-03-21T09:07:19.405Z,8.97
2019-03-21T09:10:25.076Z,8.93
2019-03-21T09:13:30.782Z,9.37
2019-03-21T09:16:36.486Z,10.14
2019-03-21T09:19:42.131Z,10.10
2019-03-21T09:22:47.832Z,9.74
2019-03-21T09:25:53.466Z,10.04
2019-03-21T09:28:59.175Z,10.33
2019-03-21T09:32:04.989Z,10.42
2019-03-21T09:35:12.429Z,10.16
2019-03-21T09:38:18.269Z,10.84
2019-03-21T09:41:23.970Z,10.92
2019-03-21T09:44:30.176Z,11.32
2019-03-21T09:47:35.999Z,11.14
2019-03-21T09:50:41.714Z,11.50
2019-03-21T09:53:47.422Z,12.02
2019-03-21T09:56:53.103Z,12.28
2019-03-21T09:59:58.835Z,11.98
2019-03-21T10:03:04.876Z,12.20
2019-03-21T10:06:10.588Z,12.02
2019-03-21T10:09:16.273Z,12.36
2019-03-21T10:12:21.966Z,11.88
2019-03-21T10:15:27.650Z,12.48
2019-03-21T10:18:33.279Z,12.39
2019-03-21T10:21:43.472Z,12.41
2019-03-21T10:24:46.342Z,11.94
2019-03-21T10:27:52.048Z,12.76
2019-03-21T10:30:57.719Z,12.77
2019-03-21T10:34:03.333Z,12.71
2019-03-21T10:37:09.029Z,12.98
2019-03-21T10:40:14.753Z,13.47
2019-03-21T10:43:20.601Z,13.17
2019-03-21T10:46:26.379Z,13.14
2019-03-21T10:49:32.166Z,13.45
2019-03-21T10:52:37.969Z,13.78
2019-03-21T10:55:43.662Z,13.88
2019-03-21T10:58:49.405Z,14.01
2019-03-21T11:02:06.680Z,13.97
2019-03-21T11:05:05.209Z,13.54
2019-03-21T11:08:10.970Z,13.75
2019-03-21T11:11:16.685Z,13.21
2019-03-21T11:14:22.371Z,13.86
2019-03-21T11:17:28.150Z,13.89
2019-03-21T11:20:35.441Z,13.74
2019-03-21T11:23:41.101Z,13.80
2019-03-21T11:26:46.834Z,14.31
2019-03-21T11:29:52.545Z,14.26
2019-03-21T11:32:58.305Z,14.09
2019-03-21T11:36:04.139Z,14.48
2019-03-21T11:39:09.833Z,14.61
2019-03-21T11:42:15.617Z,14.72
2019-03-21T11:45:21.452Z,14.30
2019-03-21T11:48:27.167Z,14.77
2019-03-21T11:51:33.863Z,14.83
2019-03-21T11:54:39.568Z,14.67
2019-03-21T11:57:45.309Z,15.08
2019-03-21T12:00:50.969Z,15.13
2019-03-21T12:03:56.759Z,15.05
2019-03-21T12:07:02.464Z,14.38
2019-03-21T12:10:08.446Z,14.10
2019-03-21T12:13:14.098Z,14.26
2019-03-21T12:16:19.817Z,14.39
2019-03-21T12:19:25.653Z,14.76
2019-03-21T12:22:31.347Z,15.12
2019-03-21T12:25:37.068Z,14.96
2019-03-21T12:28:42.732Z,15.27
2019-03-21T12:31:48.490Z,15.37
2019-03-21T12:34:54.226Z,15.44
2019-03-21T12:37:59.909Z,15.53
2019-03-21T12:41:06.610Z,15.49
2019-03-21T12:44:12.294Z,15.42
2019-03-21T12:47:17.982Z,15.14
2019-03-21T12:50:23.771Z,14.86
2019-03-21T12:53:29.578Z,15.11
2019-03-21T12:56:35.280Z,15.33
2019-03-21T12:59:40.975Z,15.21
2019-03-21T13:02:46.646Z,15.36
2019-03-21T13:05:52.295Z,15.15
2019-03-21T13:08:58.019Z,15.49
2019-03-21T13:12:03.725Z,15.72
2019-03-21T13:15:10.556Z,15.49
2019-03-21T13:18:16.205Z,15.55
2019-03-21T13:21:21.860Z,15.85
2019-03-21T13:24:27.670Z,15.92
2019-03-21T13:27:33.325Z,15.83
2019-03-21T13:30:39.016Z,15.16
2019-03-21T13:33:44.691Z,15.74
2019-03-21T13:36:50.398Z,16.01
2019-03-21T13:39:56.058Z,15.92
2019-03-21T13:43:01.850Z,15.97
2019-03-21T13:46:07.721Z,15.89
2019-03-21T13:49:13.408Z,15.96
2019-03-21T13:52:19.050Z,16.13
2019-03-21T13:55:24.715Z,16.21
2019-03-21T13:58:30.427Z,16.14
2019-03-21T14:01:36.198Z,16.34
2019-03-21T14:04:41.865Z,16.26
2019-03-21T14:07:47.581Z,16.18
2019-03-21T14:10:53.275Z,15.73
2019-03-21T14:13:59.019Z,16.20
2019-03-21T14:17:04.674Z,16.29
2019-03-21T14:20:11.220Z,16.19
2019-03-21T14:23:17.656Z,16.10
2019-03-21T14:26:23.361Z,15.88
2019-03-21T14:29:28.990Z,15.94
2019-03-21T14:32:34.706Z,16.10
2019-03-21T14:35:40.335Z,16.11
2019-03-21T14:38:45.996Z,16.18
2019-03-21T14:41:51.823Z,16.11
2019-03-21T14:44:57.513Z,15.94
2019-03-21T14:48:03.177Z,16.17
2019-03-21T14:51:10.513Z,16.12
2019-03-21T14:54:16.155Z,16.44
2019-03-21T14:57:21.897Z,16.35
2019-03-21T15:00:27.789Z,16.36
2019-03-21T15:03:33.651Z,16.24
2019-03-21T15:06:39.356Z,16.34
2019-03-21T15:09:45.016Z,16.26
2019-03-21T15:12:50.674Z,16.69
2019-03-21T15:15:56.353Z,16.54
2019-03-21T15:19:02.121Z,16.43
2019-03-21T15:22:07.794Z,16.31
2019-03-21T15:25:13.643Z,15.96
2019-03-21T15:28:19.332Z,15.85
2019-03-21T15:31:25.074Z,15.87
2019-03-21T15:34:30.769Z,15.85
2019-03-21T15:37:36.430Z,15.78
2019-03-21T15:40:42.143Z,15.47
2019-03-21T15:43:47.850Z,15.24
2019-03-21T15:46:53.545Z,15.14
2019-03-21T15:49:59.339Z,15.22
2019-03-21T15:53:05.422Z,15.20
2019-03-21T15:56:11.149Z,15.13
2019-03-21T15:59:17.644Z,14.88
2019-03-21T16:02:23.392Z,14.75
2019-03-21T16:05:29.069Z,14.65
2019-03-21T16:08:34.833Z,14.21
2019-03-21T16:15:51.281Z,13.86
2019-03-21T16:18:57.070Z,13.79
2019-03-21T16:22:02.750Z,13.71
2019-03-21T16:25:09.725Z,13.60
2019-03-21T16:28:15.489Z,13.48
2019-03-21T16:31:22.864Z,13.37
2019-03-21T16:34:28.761Z,13.25
2019-03-21T16:37:35.516Z,13.36
2019-03-21T16:40:41.263Z,13.15
2019-03-21T16:43:47.061Z,12.93
2019-03-21T16:46:53.109Z,12.68
2019-03-21T16:49:58.791Z,12.66
2019-03-21T16:53:04.844Z,12.54
2019-03-21T16:56:10.640Z,12.33
2019-03-21T16:59:16.435Z,12.56
2019-03-21T17:17:53.983Z,11.92
2019-03-21T17:25:02.388Z,11.38
2019-03-21T17:28:08.674Z,10.87
2019-03-21T17:31:23.440Z,10.83
2019-03-21T17:34:33.417Z,10.70
2019-03-21T17:44:40.117Z,10.12
2019-03-21T17:47:45.949Z,9.93
2019-03-21T17:50:53.098Z,9.67
2019-03-21T17:53:59.919Z,9.40
2019-03-21T17:57:05.975Z,9.43
2019-03-21T18:00:14.135Z,9.13
2019-03-21T18:03:19.826Z,9.14
2019-03-21T18:06:25.663Z,9.10
2019-03-21T18:09:35.643Z,8.84
2019-03-21T18:12:41.592Z,8.62
2019-03-21T18:15:47.586Z,8.54
2019-03-21T18:18:53.325Z,8.32
2019-03-21T18:21:59.069Z,8.18
2019-03-21T18:25:04.898Z,8.18
2019-03-21T18:28:10.668Z,8.18
2019-03-21T18:31:16.451Z,8.24
2019-03-21T18:34:22.175Z,7.98
2019-03-21T18:37:27.877Z,7.98
2019-03-21T18:40:33.703Z,7.89
2019-03-21T18:43:39.470Z,7.62
2019-03-21T18:46:45.216Z,7.38
2019-03-21T18:49:50.917Z,7.55
2019-03-21T18:52:56.732Z,7.53
2019-03-21T18:56:02.436Z,7.32
2019-03-21T18:59:08.082Z,7.19
2019-03-21T19:02:13.808Z,7.40
2019-03-21T19:05:19.555Z,7.11
2019-03-21T19:08:25.241Z,6.94
2019-03-21T19:11:33.759Z,6.83
2019-03-21T19:14:39.493Z,6.68
2019-03-21T19:17:45.319Z,6.63
2019-03-21T19:20:51.015Z,6.65
2019-03-21T19:23:57.049Z,6.60
2019-03-21T19:27:02.857Z,6.82
2019-03-21T19:30:09.429Z,6.87
2019-03-21T19:33:15.185Z,6.69
2019-03-21T19:36:20.885Z,6.75
2019-03-21T19:39:26.670Z,6.63
2019-03-21T19:42:32.404Z,6.30
2019-03-21T19:45:38.216Z,6.12
2019-03-21T19:48:50.241Z,6.14
2019-03-21T19:51:51.274Z,6.03
2019-03-21T19:54:56.966Z,5.98
2019-03-21T19:58:02.750Z,6.09
2019-03-21T20:01:08.670Z,5.99
2019-03-21T20:04:14.534Z,6.03
2019-03-21T20:07:20.264Z,6.11
2019-03-21T20:10:26.122Z,6.11
2019-03-21T20:13:31.920Z,6.19
2019-03-21T20:16:37.626Z,5.81
2019-03-21T20:19:43.433Z,5.64
2019-03-21T20:22:49.341Z,5.49
2019-03-21T20:25:55.272Z,5.56
2019-03-21T20:29:01.038Z,5.55
2019-03-21T20:32:06.874Z,5.71
2019-03-21T20:35:12.585Z,5.54
2019-03-21T20:38:18.518Z,5.45
2019-03-21T20:41:24.416Z,5.47
2019-03-21T20:44:30.252Z,5.51
2019-03-21T20:47:35.967Z,5.25
2019-03-21T20:50:41.696Z,5.14
2019-03-21T20:53:47.425Z,5.05
2019-03-21T20:56:53.189Z,4.97
2019-03-21T20:59:59.182Z,5.26
2019-03-21T21:03:04.929Z,5.22
2019-03-21T21:06:12.017Z,5.01
2019-03-21T21:09:17.809Z,5.01
2019-03-21T21:12:23.720Z,4.99
2019-03-21T21:15:29.541Z,4.87
2019-03-21T21:18:35.254Z,4.75
2019-03-21T21:21:41.005Z,4.73
2019-03-21T21:24:46.742Z,4.55
2019-03-21T21:27:52.489Z,4.57
2019-03-21T21:30:58.260Z,4.44
2019-03-21T21:34:04.170Z,4.40
2019-03-21T21:37:09.992Z,4.31
2019-03-21T21:40:16.788Z,4.26
2019-03-21T21:43:25.229Z,4.33
2019-03-21T21:46:31.052Z,4.26
2019-03-21T21:49:36.730Z,4.19
2019-03-21T21:52:42.638Z,4.13
2019-03-21T21:55:48.407Z,4.24
2019-03-21T21:58:54.161Z,4.25
2019-03-21T22:01:59.947Z,4.18
2019-03-21T22:05:06.016Z,4.21
2019-03-21T22:08:11.802Z,4.20
2019-03-21T22:11:17.711Z,4.13
2019-03-21T22:14:23.544Z,4.07
2019-03-21T22:17:29.291Z,4.07
2019-03-21T22:20:35.123Z,3.98
2019-03-21T22:23:40.784Z,3.96
2019-03-21T22:26:46.489Z,3.90
2019-03-21T22:29:52.308Z,3.97
2019-03-21T22:32:58.168Z,3.92
2019-03-21T22:36:06.466Z,3.84
2019-03-21T22:39:11.274Z,3.78
2019-03-21T22:42:16.988Z,3.59
2019-03-21T22:45:22.769Z,3.48
2019-03-21T22:48:28.535Z,3.38
2019-03-21T22:51:34.222Z,3.30
2019-03-21T22:54:39.897Z,3.44
2019-03-21T22:57:45.693Z,3.39
2019-03-21T23:00:53.790Z,3.26
2019-03-21T23:03:59.655Z,3.13
2019-03-21T23:07:05.326Z,3.20
2019-03-21T23:10:12.428Z,3.08
2019-03-21T23:13:18.026Z,3.03
2019-03-21T23:16:23.632Z,2.99
2019-03-21T23:19:30.415Z,3.01
2019-03-21T23:22:36.105Z,3.08
2019-03-21T23:25:41.738Z,3.06
2019-03-21T23:28:47.434Z,3.01
2019-03-21T23:31:53.132Z,2.98
2019-03-21T23:34:58.739Z,2.95
2019-03-21T23:38:04.452Z,3.02
2019-03-21T23:41:10.101Z,3.01
2019-03-21T23:44:16.103Z,2.84
2019-03-21T23:47:22.015Z,2.64
2019-03-21T23:50:27.627Z,2.65
2019-03-21T23:53:33.257Z,2.82
2019-03-21T23:56:38.948Z,2.80
2019-03-21T23:59:44.640Z,2.61
